Time;durP1;ratioP1;P1;durP2;ratioP2;P2;SDS_P1;SDS_P2;PMS_P1;PMS_P2;Temp;Humidity;BMP_temperature;BMP_pressure;BME280_temperature;BME280_humidity;BME280_pressure;Samples;Min_cycle;Max_cycle;Signal;HPM_P1;HPM_P2
2022/01/02 00:00:14;;;;;;;24.60;10.93;;;;;;;3.26;100.00;99406.63;5004417;28;20033;-67
2022/01/02 00:02:42;;;;;;;28.08;12.60;;;;;;;3.21;100.00;99397.00;5009064;28;20060;-67
2022/01/02 00:05:12;;;;;;;24.45;10.27;;;;;;;3.25;100.00;99397.09;5023378;28;20313;-67
2022/01/02 00:08:05;;;;;;;21.73;12.05;;;;;;;3.19;100.00;99402.16;5023439;28;20018;-67
2022/01/02 00:10:32;;;;;;;21.17;9.90;;;;;;;3.19;100.00;99391.75;5013180;28;20195;-67
2022/01/02 00:12:59;;;;;;;16.90;9.63;;;;;;;3.18;100.00;99379.59;5005166;28;20321;-67
2022/01/02 00:15:26;;;;;;;34.45;15.55;;;;;;;3.16;100.00;99370.88;5008003;28;20030;-67
2022/01/02 00:17:53;;;;;;;29.83;12.93;;;;;;;3.10;100.00;99365.53;5007923;28;20026;-67
2022/01/02 00:20:21;;;;;;;51.65;21.55;;;;;;;3.04;100.00;99360.19;5009378;28;20030;-67
2022/01/02 00:22:50;;;;;;;54.42;21.50;;;;;;;3.07;100.00;99375.88;5017435;28;20022;-67
2022/01/02 00:25:29;;;;;;;17.63;8.45;;;;;;;3.18;100.00;99384.81;5021500;28;20100;-67
2022/01/02 00:27:54;;;;;;;21.70;8.52;;;;;;;3.19;100.00;99383.94;5007926;28;20077;-67
2022/01/02 00:30:20;;;;;;;15.63;7.28;;;;;;;3.10;100.00;99386.34;5007760;28;20313;-67
2022/01/02 00:32:45;;;;;;;15.18;6.97;;;;;;;2.94;100.00;99391.19;5023501;28;20040;-67
2022/01/02 00:35:11;;;;;;;18.92;7.80;;;;;;;2.81;100.00;99390.03;5026648;28;20384;-67
2022/01/02 00:37:38;;;;;;;20.65;7.03;;;;;;;2.84;100.00;99382.28;5008946;28;20022;-67
2022/01/02 00:40:04;;;;;;;25.00;8.00;;;;;;;2.75;100.00;99387.28;5020199;28;20097;-67
2022/01/02 00:42:39;;;;;;;14.80;7.25;;;;;;;2.80;100.00;99383.06;5010768;28;20030;-67
2022/01/02 00:45:11;;;;;;;21.05;7.70;;;;;;;2.96;100.00;99369.56;5007747;28;20030;-67
2022/01/02 00:47:36;;;;;;;20.90;9.30;;;;;;;3.04;100.00;99375.81;5007518;28;20017;-67
2022/01/02 00:50:08;;;;;;;26.27;11.15;;;;;;;3.07;100.00;99388.03;5026471;28;20014;-67
2022/01/02 00:52:45;;;;;;;22.23;10.20;;;;;;;3.11;100.00;99390.72;5026664;28;20017;-67
2022/01/02 00:55:13;;;;;;;28.45;11.73;;;;;;;3.04;100.00;99388.81;5015491;28;20316;-67
2022/01/02 00:57:41;;;;;;;34.10;13.85;;;;;;;2.98;100.00;99382.59;5021033;28;20036;-67
2022/01/02 01:00:10;;;;;;;23.23;10.70;;;;;;;2.83;100.00;99377.94;5009647;28;20029;-67
2022/01/02 01:02:40;;;;;;;33.20;14.13;;;;;;;2.87;100.00;99366.75;5022330;28;20026;-67
2022/01/02 01:05:08;;;;;;;42.33;19.42;;;;;;;2.79;100.00;99362.25;5007059;28;20130;-67
2022/01/02 01:07:34;;;;;;;35.60;15.75;;;;;;;2.86;100.00;99365.03;5008882;28;20081;-67
2022/01/02 01:10:03;;;;;;;41.55;17.70;;;;;;;2.85;100.00;99357.19;5012987;28;20037;-67
2022/01/02 01:12:29;;;;;;;31.85;14.20;;;;;;;2.80;100.00;99351.88;5015116;28;20064;-67
2022/01/02 01:14:54;;;;;;;29.70;12.60;;;;;;;2.79;100.00;99357.94;5026022;28;20068;-67
2022/01/02 01:17:20;;;;;;;30.17;12.98;;;;;;;2.60;100.00;99350.56;5025634;28;20045;-67
2022/01/02 01:19:46;;;;;;;39.65;15.85;;;;;;;2.37;100.00;99341.31;5025919;28;20077;-67
2022/01/02 01:22:11;;;;;;;37.17;17.40;;;;;;;2.42;100.00;99344.91;5013575;28;20025;-67
2022/01/02 01:24:37;;;;;;;40.40;15.18;;;;;;;2.47;100.00;99326.84;5024462;28;20033;-67
2022/01/02 01:27:07;;;;;;;32.38;15.57;;;;;;;2.46;100.00;99333.75;5009255;28;20094;-67
2022/01/02 01:29:34;;;;;;;34.15;15.05;;;;;;;2.50;100.00;99329.50;5026005;28;20209;-67
2022/01/02 01:32:02;;;;;;;27.70;12.98;;;;;;;2.57;100.00;99331.41;5025435;28;20017;-67
2022/01/02 01:34:27;;;;;;;23.00;12.57;;;;;;;2.59;100.00;99333.19;5025735;28;20022;-67
2022/01/02 01:36:53;;;;;;;23.73;12.07;;;;;;;2.62;100.00;99338.47;5025542;28;20018;-67
2022/01/02 01:39:18;;;;;;;27.60;12.95;;;;;;;2.59;100.00;99333.19;5025316;28;20022;-67
2022/01/02 01:41:46;;;;;;;26.05;11.02;;;;;;;2.56;100.00;99330.53;5024176;28;20152;-67
2022/01/02 01:46:39;;;;;;;25.10;12.43;;;;;;;2.19;100.00;99325.31;5006379;28;20025;-67
2022/01/02 01:49:20;;;;;;;59.25;25.05;;;;;;;2.26;100.00;99327.22;5006374;28;20025;-67
2022/01/02 01:51:47;;;;;;;39.00;16.67;;;;;;;2.25;100.00;99330.66;5015542;28;20018;-67
2022/01/02 01:54:13;;;;;;;52.95;21.27;;;;;;;2.28;100.00;99329.84;5020604;28;20045;-67
2022/01/02 01:56:39;;;;;;;41.42;16.13;;;;;;;2.40;100.00;99330.16;5013469;28;20060;-67
2022/01/02 01:59:05;;;;;;;38.88;16.27;;;;;;;2.47;100.00;99332.94;5017198;28;20030;-67
2022/01/02 02:01:31;;;;;;;36.65;14.18;;;;;;;2.56;100.00;99333.13;5017397;28;20021;-67
2022/01/02 02:03:57;;;;;;;32.97;14.50;;;;;;;2.54;100.00;99324.44;5025092;28;20060;-67
2022/01/02 02:06:23;;;;;;;26.77;13.45;;;;;;;2.50;100.00;99322.56;5025089;28;20018;-67
2022/01/02 02:08:52;;;;;;;27.38;13.70;;;;;;;2.57;100.00;99319.31;5024969;28;20029;-67
2022/01/02 02:11:18;;;;;;;31.83;14.48;;;;;;;2.59;100.00;99322.78;5024693;28;20220;-67
2022/01/02 02:13:44;;;;;;;27.85;11.32;;;;;;;2.58;100.00;99310.66;5022294;28;20232;-67
2022/01/02 02:16:10;;;;;;;27.08;10.80;;;;;;;2.52;100.00;99305.31;5019113;28;20025;-67
2022/01/02 02:18:35;;;;;;;21.90;9.88;;;;;;;2.55;100.00;99297.59;5023283;28;20026;-67
2022/01/02 02:21:01;;;;;;;22.50;9.93;;;;;;;2.62;100.00;99309.03;5025025;28;20014;-67
2022/01/02 02:23:26;;;;;;;31.35;12.70;;;;;;;2.52;100.00;99300.13;5024744;28;20037;-67
2022/01/02 02:25:52;;;;;;;28.70;12.27;;;;;;;2.44;100.00;99293.88;5024241;28;20264;-67
2022/01/02 02:28:18;;;;;;;32.63;12.25;;;;;;;2.48;100.00;99287.91;5024779;28;20325;-67
2022/01/02 02:30:47;;;;;;;32.50;14.80;;;;;;;2.55;100.00;99284.59;5009287;28;20041;-67
2022/01/02 02:33:14;;;;;;;26.80;12.88;;;;;;;2.54;100.00;99282.84;5006598;28;20225;-67
2022/01/02 02:35:42;;;;;;;36.63;15.18;;;;;;;2.35;100.00;99285.00;5005262;28;20064;-67
2022/01/02 02:38:09;;;;;;;39.35;15.38;;;;;;;2.34;100.00;99289.28;5005405;28;20138;-67
2022/01/02 02:40:36;;;;;;;33.28;14.88;;;;;;;2.34;100.00;99294.50;5005333;28;20089;-67
2022/01/02 02:51:09;;;;;;;34.72;13.27;;;;;;;1.97;100.00;99284.09;5019861;28;20353;-67
2022/01/02 02:53:37;;;;;;;30.58;14.07;;;;;;;1.94;100.00;99271.91;5023947;28;20093;-67
2022/01/02 02:56:13;;;;;;;30.63;12.65;;;;;;;1.87;100.00;99263.94;5024101;28;20380;-67
2022/01/02 02:58:41;;;;;;;32.80;15.13;;;;;;;1.96;100.00;99258.94;5023917;28;20041;-67
2022/01/02 03:01:08;;;;;;;24.20;11.38;;;;;;;2.00;100.00;99251.28;5023038;28;20036;-67
2022/01/02 03:03:34;;;;;;;28.10;12.73;;;;;;;2.09;100.00;99248.03;5023777;28;20031;-67
2022/01/02 03:05:59;;;;;;;29.13;12.32;;;;;;;2.19;100.00;99258.66;5019254;28;20030;-67
2022/01/02 03:08:26;;;;;;;27.33;12.25;;;;;;;2.14;100.00;99254.19;5004990;28;20026;-67
2022/01/02 03:14:13;;;;;;;17.80;9.00;;;;;;;1.98;100.00;99247.78;5017315;28;20117;-67
2022/01/02 03:16:39;;;;;;;25.77;12.73;;;;;;;1.96;100.00;99240.78;5022468;28;20026;-67
2022/01/02 03:19:06;;;;;;;34.83;16.08;;;;;;;1.94;100.00;99235.59;5023584;28;20084;-67
2022/01/02 03:21:31;;;;;;;23.23;11.68;;;;;;;1.97;100.00;99230.44;5019167;28;20018;-67
2022/01/02 03:23:57;;;;;;;38.40;11.95;;;;;;;2.16;100.00;99217.03;5012811;28;20025;-67
2022/01/02 03:26:23;;;;;;;33.83;12.63;;;;;;;2.31;100.00;99226.88;5015620;28;20029;-67
2022/01/02 03:28:49;;;;;;;28.60;10.68;;;;;;;2.34;100.00;99229.56;5023672;28;20041;-67
2022/01/02 03:31:15;;;;;;;27.10;11.10;;;;;;;2.23;100.00;99218.06;5014757;28;20037;-67
2022/01/02 03:33:41;;;;;;;23.10;10.55;;;;;;;2.37;100.00;99205.41;5004710;28;20117;-67
2022/01/02 03:36:07;;;;;;;27.35;10.43;;;;;;;2.38;100.00;99213.22;5019293;28;20025;-67
2022/01/02 03:38:34;;;;;;;26.77;10.57;;;;;;;2.46;100.00;99208.19;5022298;28;20026;-67
2022/01/02 03:41:00;;;;;;;18.33;9.38;;;;;;;2.36;100.00;99209.69;5004482;28;20014;-67
2022/01/02 03:43:26;;;;;;;16.80;8.63;;;;;;;2.42;100.00;99199.44;5011397;28;20018;-67
2022/01/02 03:45:51;;;;;;;28.55;9.38;;;;;;;2.42;100.00;99204.63;5021269;28;20018;-67
2022/01/02 03:48:17;;;;;;;21.27;9.30;;;;;;;2.38;100.00;99207.13;5005667;28;20322;-67
2022/01/02 03:50:42;;;;;;;25.95;10.57;;;;;;;2.25;100.00;99174.84;5016149;28;20037;-67
2022/01/02 03:53:08;;;;;;;19.63;10.05;;;;;;;2.12;100.00;99193.59;5027457;28;20022;-67
2022/01/02 03:55:34;;;;;;;18.10;9.27;;;;;;;2.26;100.00;99192.16;5027489;28;20036;-67
2022/01/02 03:58:00;;;;;;;24.80;11.18;;;;;;;2.29;100.00;99176.66;5027181;28;20321;-67
2022/01/02 04:00:25;;;;;;;19.33;9.73;;;;;;;2.24;100.00;99186.06;5026084;28;20044;-67
2022/01/02 04:02:50;;;;;;;22.73;11.48;;;;;;;2.38;100.00;99161.28;5027392;28;20022;-67
2022/01/02 04:05:17;;;;;;;21.48;9.45;;;;;;;2.45;100.00;99152.75;5027362;28;20048;-67
2022/01/02 04:07:44;;;;;;;23.15;9.98;;;;;;;2.55;100.00;99159.88;5027347;28;20014;-67
2022/01/02 04:10:12;;;;;;;21.88;9.98;;;;;;;2.58;100.00;99153.88;5027546;28;20021;-67
2022/01/02 04:12:38;;;;;;;28.45;10.95;;;;;;;2.49;100.00;99144.16;5020268;28;20018;-67
2022/01/02 04:15:07;;;;;;;26.10;11.75;;;;;;;2.69;100.00;99158.44;5019865;28;20066;-67
2022/01/02 04:17:33;;;;;;;28.45;11.35;;;;;;;2.73;100.00;99175.84;5016751;28;20017;-67
2022/01/02 04:19:59;;;;;;;27.48;9.70;;;;;;;2.73;100.00;99170.66;5023374;28;20040;-67
2022/01/02 04:22:24;;;;;;;19.98;9.65;;;;;;;2.79;100.00;99157.78;5014830;28;20058;-67
2022/01/02 04:24:50;;;;;;;20.15;9.98;;;;;;;2.70;100.00;99165.41;5009798;28;20035;-67
2022/01/02 04:27:18;;;;;;;27.83;11.45;;;;;;;2.63;100.00;99158.34;5007895;28;20026;-67
2022/01/02 04:29:43;;;;;;;27.15;13.07;;;;;;;2.59;100.00;99166.88;5007800;28;20266;-67
2022/01/02 04:32:09;;;;;;;29.73;14.98;;;;;;;2.63;100.00;99170.44;5007792;28;20026;-67
2022/01/02 04:34:34;;;;;;;31.65;14.57;;;;;;;2.62;100.00;99161.75;5014757;28;20042;-67
2022/01/02 04:37:00;;;;;;;36.63;14.77;;;;;;;2.71;100.00;99169.75;5007594;28;20033;-67
2022/01/02 04:39:25;;;;;;;20.73;9.52;;;;;;;2.84;100.00;99171.72;5024356;28;20025;-67
2022/01/02 04:41:51;;;;;;;26.02;12.43;;;;;;;2.89;100.00;99183.09;5015143;28;20022;-67
2022/01/02 04:44:16;;;;;;;21.85;10.07;;;;;;;2.89;100.00;99175.31;5007564;28;20030;-67
2022/01/02 04:46:41;;;;;;;26.15;11.48;;;;;;;2.80;100.00;99171.63;5007521;28;20233;-67
2022/01/02 04:49:07;;;;;;;21.13;9.65;;;;;;;2.77;100.00;99171.56;5007548;28;20053;-67
2022/01/02 04:51:32;;;;;;;28.98;12.05;;;;;;;2.76;100.00;99160.31;5007426;28;20085;-67
2022/01/02 04:53:58;;;;;;;18.45;10.93;;;;;;;2.85;100.00;99170.03;5015308;28;20344;-67
2022/01/02 04:56:23;;;;;;;28.77;11.90;;;;;;;2.97;100.00;99165.91;5007258;28;20026;-67
2022/01/02 04:58:49;;;;;;;28.20;11.95;;;;;;;2.92;100.00;99157.16;5008130;28;20098;-67
2022/01/02 05:01:16;;;;;;;28.65;12.77;;;;;;;2.91;100.00;99142.41;5006221;28;20309;-67
2022/01/02 05:03:42;;;;;;;28.85;13.70;;;;;;;2.96;100.00;99143.38;5007177;28;20025;-67
2022/01/02 05:06:08;;;;;;;29.85;13.63;;;;;;;2.99;100.00;99146.03;5007155;28;20018;-67
2022/01/02 05:08:34;;;;;;;31.60;12.88;;;;;;;3.12;100.00;99140.19;5011790;28;20068;-67
2022/01/02 05:10:59;;;;;;;20.92;9.10;;;;;;;3.19;100.00;99135.97;5025905;28;20021;-67
2022/01/02 05:13:25;;;;;;;22.95;9.38;;;;;;;3.24;100.00;99140.44;5026343;28;20021;-67
2022/01/02 05:15:50;;;;;;;21.27;9.05;;;;;;;3.17;100.00;99128.16;5012059;28;20021;-67
2022/01/02 05:18:16;;;;;;;17.05;8.10;;;;;;;3.22;100.00;99130.81;5015448;28;20052;-67
2022/01/02 05:20:44;;;;;;;26.25;11.48;;;;;;;3.04;100.00;99120.13;5025867;28;20041;-67
2022/01/02 05:23:10;;;;;;;24.45;11.80;;;;;;;3.07;100.00;99130.56;5018035;28;20132;-67
2022/01/02 05:25:35;;;;;;;26.73;11.55;;;;;;;3.10;100.00;99115.88;5011525;28;20034;-67
2022/01/02 05:28:00;;;;;;;22.45;10.77;;;;;;;3.15;100.00;99114.25;5006825;28;20193;-67
2022/01/02 05:30:26;;;;;;;23.02;9.30;;;;;;;3.23;100.00;99123.03;5006680;28;20018;-67
2022/01/02 05:32:51;;;;;;;20.33;9.40;;;;;;;3.19;100.00;99125.56;5007727;28;20018;-67
2022/01/02 05:35:17;;;;;;;15.90;8.43;;;;;;;3.17;100.00;99128.16;5006622;28;20069;-67
2022/01/02 05:37:42;;;;;;;19.80;9.55;;;;;;;3.24;100.00;99130.03;5007579;28;20373;-67
2022/01/02 05:40:08;;;;;;;19.30;9.75;;;;;;;3.30;100.00;99137.94;5014252;28;20309;-67
2022/01/02 05:42:33;;;;;;;19.45;9.02;;;;;;;3.37;100.00;99124.16;5014622;28;20097;-67
2022/01/02 05:44:58;;;;;;;17.08;8.60;;;;;;;3.39;100.00;99129.41;5006409;28;20068;-67
2022/01/02 05:47:24;;;;;;;18.30;8.98;;;;;;;3.36;100.00;99132.81;5006731;28;20044;-67
2022/01/02 05:49:49;;;;;;;20.88;11.15;;;;;;;3.10;100.00;99139.28;5007089;28;20313;-67
2022/01/02 05:52:14;;;;;;;20.17;8.20;;;;;;;3.10;100.00;99147.09;5006289;28;20073;-67
2022/01/02 05:54:40;;;;;;;25.02;11.05;;;;;;;3.12;100.00;99140.19;5007498;28;20052;-67
2022/01/02 05:57:05;;;;;;;34.63;12.70;;;;;;;3.13;100.00;99108.13;5025207;28;20049;-67
2022/01/02 05:59:31;;;;;;;21.27;11.20;;;;;;;3.19;100.00;99130.75;5017853;28;20072;-67
2022/01/02 06:01:56;;;;;;;29.23;10.38;;;;;;;3.27;100.00;99121.38;5006370;28;20022;-67
2022/01/02 06:04:21;;;;;;;19.58;9.95;;;;;;;3.29;100.00;99117.94;5007186;28;20018;-67
2022/01/02 06:06:47;;;;;;;18.50;9.43;;;;;;;3.31;100.00;99128.38;5005988;28;20064;-67
2022/01/02 06:09:12;;;;;;;39.30;14.32;;;;;;;3.35;100.00;99106.78;5021876;28;20025;-67
2022/01/02 06:11:37;;;;;;;30.00;15.43;;;;;;;3.42;100.00;99125.09;5019290;28;20021;-67
2022/01/02 06:14:03;;;;;;;39.75;16.85;;;;;;;3.38;100.00;99112.91;5024703;28;20021;-67
2022/01/02 06:16:28;;;;;;;28.35;14.48;;;;;;;3.34;100.00;99110.22;5021039;28;20029;-67
2022/01/02 06:18:54;;;;;;;29.35;11.75;;;;;;;3.35;100.00;99117.19;5005789;28;20294;-67
2022/01/02 06:21:19;;;;;;;22.48;11.25;;;;;;;3.40;100.00;99118.13;5013745;28;20022;-67
2022/01/02 06:23:45;;;;;;;25.63;10.23;;;;;;;3.32;100.00;99122.34;5018161;28;20021;-67
2022/01/02 06:26:10;;;;;;;21.90;11.15;;;;;;;3.33;100.00;99111.97;5018025;28;20042;-67
2022/01/02 06:28:36;;;;;;;29.92;12.43;;;;;;;3.22;100.00;99116.09;5005882;28;20310;-67
2022/01/02 06:31:01;;;;;;;27.48;12.45;;;;;;;3.22;100.00;99121.31;5005517;28;20041;-67
2022/01/02 06:33:26;;;;;;;25.92;11.85;;;;;;;3.25;100.00;99121.34;5005490;28;20037;-67
2022/01/02 06:35:52;;;;;;;25.80;11.23;;;;;;;3.28;100.00;99121.41;5005345;28;20034;-67
2022/01/02 06:38:21;;;;;;;25.85;10.55;;;;;;;3.28;100.00;99121.41;5005396;28;20373;-67
2022/01/02 06:40:47;;;;;;;23.48;9.88;;;;;;;3.26;100.00;99107.50;5005310;28;20269;-67
2022/01/02 06:43:16;;;;;;;21.52;11.13;;;;;;;3.18;100.00;99114.31;5005546;28;20073;-67
2022/01/02 06:45:43;;;;;;;15.38;8.27;;;;;;;3.35;100.00;99125.84;5005252;28;20022;-67
2022/01/02 06:48:09;;;;;;;19.25;8.70;;;;;;;3.46;100.00;99132.13;5005249;28;20089;-67
2022/01/02 06:50:34;;;;;;;27.00;10.05;;;;;;;3.52;100.00;99141.75;5016022;28;20018;-67
2022/01/02 06:53:00;;;;;;;22.92;10.55;;;;;;;3.53;100.00;99128.78;5024026;28;20018;-67
2022/01/02 06:55:26;;;;;;;21.40;10.35;;;;;;;3.45;100.00;99135.56;5024213;28;20026;-67
2022/01/02 06:57:51;;;;;;;26.27;11.60;;;;;;;3.41;100.00;99131.16;5023850;28;20022;-67
2022/01/02 07:00:17;;;;;;;29.95;13.70;;;;;;;3.31;100.00;99110.16;5024098;28;20040;-67
2022/01/02 07:02:42;;;;;;;25.33;12.70;;;;;;;3.36;100.00;99111.13;5024370;28;20041;-67
2022/01/02 07:05:08;;;;;;;28.63;13.60;;;;;;;3.46;100.00;99110.44;5014812;28;20030;-67
2022/01/02 07:07:40;;;;;;;28.45;12.07;;;;;;;3.52;100.00;99108.81;5004906;28;20078;-67
2022/01/02 07:10:05;;;;;;;29.35;11.98;;;;;;;3.47;100.00;99096.56;5004944;28;20033;-67
2022/01/02 07:12:31;;;;;;;26.00;13.63;;;;;;;3.55;100.00;99094.97;5008686;28;20092;-67
2022/01/02 07:14:56;;;;;;;21.48;11.20;;;;;;;3.64;100.00;99101.16;5023919;28;20049;-67
2022/01/02 07:17:21;;;;;;;21.58;10.48;;;;;;;3.74;100.00;99097.84;5023578;28;20089;-67
2022/01/02 07:19:47;;;;;;;17.95;9.48;;;;;;;3.82;100.00;99096.25;5014539;28;20037;-67
2022/01/02 07:22:12;;;;;;;19.15;9.00;;;;;;;3.68;100.00;99097.78;5022464;28;20068;-67
2022/01/02 07:24:39;;;;;;;17.40;8.52;;;;;;;3.66;100.00;99088.19;5014728;28;20021;-67
2022/01/02 07:27:05;;;;;;;17.33;10.13;;;;;;;3.65;100.00;99087.31;5023330;28;20058;-67
2022/01/02 07:29:30;;;;;;;19.10;10.00;;;;;;;3.60;100.00;99083.78;5022792;28;20049;-67
2022/01/02 07:31:56;;;;;;;22.55;7.75;;;;;;;3.78;100.00;99089.25;5021742;28;20022;-67
2022/01/02 07:34:21;;;;;;;19.88;6.72;;;;;;;3.86;100.00;99092.81;5003224;28;20022;-67
2022/01/02 07:36:46;;;;;;;16.75;9.27;;;;;;;3.79;100.00;99096.19;5018047;28;20068;-67
2022/01/02 07:39:13;;;;;;;21.30;9.18;;;;;;;3.83;100.00;99095.38;5021797;28;20470;-67
2022/01/02 07:41:40;;;;;;;22.27;7.95;;;;;;;3.86;100.00;99077.22;5003791;28;20025;-67
2022/01/02 07:44:05;;;;;;;16.30;6.32;;;;;;;4.08;100.00;99067.94;5008725;28;20021;-67
2022/01/02 07:46:32;;;;;;;15.73;7.82;;;;;;;4.19;100.00;99062.03;5014263;28;20018;-67
2022/01/02 07:48:57;;;;;;;17.98;8.95;;;;;;;4.25;100.00;99067.31;5011484;28;20030;-67
2022/01/02 07:51:23;;;;;;;21.33;9.32;;;;;;;4.48;100.00;99070.19;5003747;28;20018;-67
2022/01/02 07:53:48;;;;;;;21.83;9.38;;;;;;;4.46;100.00;99071.91;5003509;28;20318;-67
2022/01/02 07:56:15;;;;;;;13.38;6.50;;;;;;;4.85;100.00;99071.47;5003316;28;20361;-67
2022/01/02 07:58:41;;;;;;;29.25;12.48;;;;;;;4.84;100.00;99060.16;5009749;28;20014;-67
2022/01/02 08:01:06;;;;;;;22.20;8.57;;;;;;;5.45;100.00;99072.91;5017465;28;20141;-67
2022/01/02 08:03:32;;;;;;;16.77;7.82;;;;;;;5.70;100.00;99089.59;5021141;28;20081;-67
2022/01/02 08:05:57;;;;;;;18.58;8.48;;;;;;;5.88;100.00;99084.50;5022441;28;20053;-67
2022/01/02 08:08:23;;;;;;;19.67;7.30;;;;;;;6.05;100.00;99078.53;5020844;28;20089;-67
2022/01/02 08:10:48;;;;;;;13.68;6.30;;;;;;;6.26;100.00;99088.22;5022395;28;20029;-67
2022/01/02 08:13:14;;;;;;;13.77;4.80;;;;;;;6.36;100.00;99087.41;5021863;28;20025;-67
2022/01/02 08:15:40;;;;;;;9.85;4.63;;;;;;;6.77;100.00;99077.94;5021026;28;20333;-67
2022/01/02 08:18:05;;;;;;;11.13;4.80;;;;;;;6.99;100.00;99079.75;5020927;28;20025;-67
2022/01/02 08:20:30;;;;;;;10.07;4.57;;;;;;;7.13;100.00;99109.44;5010843;28;20310;-67
2022/01/02 08:22:56;;;;;;;9.18;4.07;;;;;;;7.31;100.00;99088.50;5013218;28;20040;-67
2022/01/02 08:25:23;;;;;;;10.23;4.40;;;;;;;7.56;100.00;99094.66;5015287;28;20046;-67
2022/01/02 08:27:48;;;;;;;8.95;3.97;;;;;;;7.58;100.00;99088.53;5013372;28;20021;-67
2022/01/02 08:30:14;;;;;;;7.25;3.95;;;;;;;7.75;99.11;99092.00;5004263;28;20086;-66
2022/01/02 08:32:39;;;;;;;7.28;4.03;;;;;;;7.78;98.67;99099.84;5010273;28;20069;-66
2022/01/02 08:35:06;;;;;;;6.20;3.95;;;;;;;7.93;98.29;99106.81;5008746;28;20050;-66
2022/01/02 08:37:32;;;;;;;10.68;4.90;;;;;;;7.90;97.87;99112.97;5020867;28;20034;-66
2022/01/02 08:39:57;;;;;;;7.60;3.80;;;;;;;8.09;96.70;99103.31;5024636;28;20042;-66
2022/01/02 08:42:23;;;;;;;11.15;4.05;;;;;;;8.13;96.53;99094.59;5009393;28;20026;-67
2022/01/02 08:44:48;;;;;;;7.90;4.13;;;;;;;8.25;97.36;99090.19;5006635;28;20214;-67
2022/01/02 08:47:13;;;;;;;7.80;4.03;;;;;;;8.24;96.77;99093.69;5017708;28;20125;-67
2022/01/02 08:49:39;;;;;;;8.77;4.43;;;;;;;8.25;96.63;99095.44;5020294;28;20029;-67
2022/01/02 08:52:05;;;;;;;9.43;4.55;;;;;;;8.41;95.91;99101.50;5012664;28;20033;-67
2022/01/02 08:54:30;;;;;;;7.50;4.05;;;;;;;8.47;96.04;99097.13;5025788;28;20256;-67
2022/01/02 08:56:56;;;;;;;8.00;3.65;;;;;;;8.53;95.58;99078.72;5026031;28;20340;-65
2022/01/02 08:59:24;;;;;;;8.43;4.00;;;;;;;8.53;95.16;99073.47;5026367;28;20081;-65
2022/01/02 09:01:51;;;;;;;11.90;4.70;;;;;;;8.57;94.87;99077.84;5020785;28;20026;-66
2022/01/02 09:04:16;;;;;;;8.98;4.53;;;;;;;8.60;95.03;99088.31;5007359;28;20033;-66
2022/01/02 09:06:42;;;;;;;6.72;3.95;;;;;;;8.63;95.04;99087.41;5026212;28;20213;-66
2022/01/02 09:09:08;;;;;;;11.77;3.92;;;;;;;8.60;94.46;99104.06;5026437;28;20022;-66
2022/01/02 09:11:33;;;;;;;7.88;3.88;;;;;;;8.59;95.36;99112.81;5008673;28;20219;-66
2022/01/02 09:14:00;;;;;;;11.23;4.35;;;;;;;8.66;95.10;99117.16;5007033;28;20026;-66
2022/01/02 09:16:26;;;;;;;8.85;4.45;;;;;;;8.65;94.72;99104.94;5006841;28;20029;-66
2022/01/02 09:18:51;;;;;;;10.43;5.10;;;;;;;8.69;94.71;99098.78;5006962;28;20245;-66
2022/01/02 09:21:17;;;;;;;10.13;4.22;;;;;;;8.69;94.23;99103.13;5020185;28;20029;-66
2022/01/02 09:23:42;;;;;;;9.85;4.45;;;;;;;8.76;94.21;99082.13;5025626;28;20028;-66
2022/01/02 09:26:07;;;;;;;9.82;4.45;;;;;;;8.81;94.23;99089.97;5024379;28;20109;-66
2022/01/02 09:28:33;;;;;;;8.65;3.95;;;;;;;8.86;93.82;99079.44;5011511;28;20089;-66
2022/01/02 09:30:58;;;;;;;11.02;4.53;;;;;;;8.96;93.79;99078.50;5006720;28;20033;-66
2022/01/02 09:33:24;;;;;;;10.18;4.22;;;;;;;8.91;94.10;99088.16;5006661;28;20210;-66
2022/01/02 09:35:49;;;;;;;7.93;4.00;;;;;;;9.06;92.80;99090.69;5013583;28;20029;-66
2022/01/02 09:38:14;;;;;;;7.35;3.75;;;;;;;9.19;92.20;99063.47;5025360;28;20041;-66
2022/01/02 09:40:41;;;;;;;7.38;3.72;;;;;;;9.24;91.72;99066.94;5022344;28;20046;-66
2022/01/02 09:43:07;;;;;;;10.55;4.05;;;;;;;9.18;91.59;99072.25;5021814;28;20317;-66
2022/01/02 09:45:35;;;;;;;6.55;3.70;;;;;;;9.20;91.77;99050.31;5005705;28;20033;-66
2022/01/02 09:48:02;;;;;;;7.55;3.63;;;;;;;9.22;91.75;99058.19;5005623;28;20085;-66
2022/01/02 09:50:27;;;;;;;6.60;3.75;;;;;;;9.26;92.27;99028.38;5006676;28;20085;-66
2022/01/02 09:52:54;;;;;;;11.85;4.72;;;;;;;9.30;91.63;99011.75;5010393;28;20026;-66
2022/01/02 09:55:20;;;;;;;8.63;3.50;;;;;;;9.43;92.36;99002.88;5025576;28;20041;-66
2022/01/02 09:57:48;;;;;;;7.88;4.05;;;;;;;9.45;92.97;99003.72;5024906;28;20029;-66
2022/01/02 10:00:15;;;;;;;11.77;4.40;;;;;;;9.53;92.29;98996.63;5025460;28;20022;-66
2022/01/02 10:02:57;;;;;;;8.63;4.05;;;;;;;9.56;92.52;98986.09;5024946;28;20056;-66
2022/01/02 10:05:24;;;;;;;8.05;3.90;;;;;;;9.58;91.25;98984.31;5023807;28;20060;-66
2022/01/02 10:07:51;;;;;;;6.78;3.75;;;;;;;9.58;92.58;99006.22;5008101;28;20213;-66
2022/01/02 10:10:17;;;;;;;6.30;2.92;;;;;;;9.61;91.81;99026.31;5005948;28;20085;-66
2022/01/02 10:12:43;;;;;;;7.10;3.47;;;;;;;9.65;90.35;99017.56;5005894;28;20086;-66
2022/01/02 10:15:23;;;;;;;6.88;3.28;;;;;;;9.66;90.72;99004.41;5005907;28;20030;-66
2022/01/02 10:18:09;;;;;;;7.40;3.17;;;;;;;9.82;89.24;99026.13;5012603;28;20080;-66
2022/01/02 10:20:38;;;;;;;8.80;4.05;;;;;;;9.95;88.21;99028.63;5024901;28;20041;-66
2022/01/02 10:23:21;;;;;;;7.55;3.30;;;;;;;10.09;87.04;99032.00;5009892;28;20037;-66
2022/01/02 10:26:01;;;;;;;6.15;3.47;;;;;;;9.98;88.27;99018.09;5007497;28;20053;-66
2022/01/02 10:28:30;;;;;;;7.40;3.30;;;;;;;10.01;87.46;99027.69;5020945;28;20248;-66
2022/01/02 10:30:59;;;;;;;13.93;3.90;;;;;;;10.06;87.86;99023.25;5024946;28;20037;-66
2022/01/02 10:33:26;;;;;;;7.47;3.03;;;;;;;10.14;87.05;99035.47;5024675;28;20093;-66
2022/01/02 10:36:02;;;;;;;6.20;3.50;;;;;;;10.18;85.69;99036.28;5024589;28;20073;-66
2022/01/02 10:38:30;;;;;;;11.30;3.97;;;;;;;10.15;85.68;99042.44;5007285;28;20034;-66
2022/01/02 10:40:55;;;;;;;5.93;2.95;;;;;;;10.10;86.89;99053.94;5017644;28;20310;-66
2022/01/02 10:43:30;;;;;;;6.82;2.97;;;;;;;10.09;85.82;99062.69;5024690;28;20028;-66
2022/01/02 10:46:03;;;;;;;7.53;3.65;;;;;;;10.18;86.15;99063.47;5024678;28;20372;-66
2022/01/02 10:48:40;;;;;;;7.32;3.05;;;;;;;10.26;84.47;99050.22;5024402;28;20028;-66
2022/01/02 10:51:14;;;;;;;6.03;3.05;;;;;;;10.24;84.79;99046.75;5024632;28;20363;-66
2022/01/02 10:54:01;;;;;;;5.28;2.70;;;;;;;10.33;84.29;99046.63;5022765;28;20041;-66
2022/01/02 10:56:30;;;;;;;4.57;2.65;;;;;;;10.39;84.61;99036.03;5024943;28;20325;-66
2022/01/02 10:58:57;;;;;;;6.68;3.30;;;;;;;10.50;83.21;99028.88;5024688;28;20033;-66
2022/01/02 11:01:23;;;;;;;6.28;2.90;;;;;;;10.53;82.37;99013.03;5024633;28;20025;-66
2022/01/02 11:03:51;;;;;;;5.22;2.53;;;;;;;10.63;83.13;98996.22;5024602;28;20403;-66
2022/01/02 11:06:26;;;;;;;7.30;3.20;;;;;;;10.56;82.74;99002.47;5022884;28;20021;-66
2022/01/02 11:08:55;;;;;;;4.97;2.75;;;;;;;10.63;83.44;99010.28;5016794;28;20313;-66
2022/01/02 11:11:21;;;;;;;7.90;3.70;;;;;;;10.73;82.76;99008.41;5024043;28;20022;-66
2022/01/02 11:13:46;;;;;;;7.63;3.40;;;;;;;10.79;82.64;99021.47;5005810;28;20034;-66
2022/01/02 11:16:12;;;;;;;7.85;3.10;;;;;;;10.79;81.46;99000.41;5007247;28;20317;-66
2022/01/02 11:18:37;;;;;;;5.82;3.22;;;;;;;10.72;80.87;98999.63;5014363;28;20029;-66
2022/01/02 11:21:09;;;;;;;6.32;3.03;;;;;;;10.76;81.61;98984.66;5004803;28;20022;-66
2022/01/02 11:23:57;;;;;;;7.03;3.15;;;;;;;10.67;81.42;98984.78;5017901;28;20231;-66
2022/01/02 11:26:46;;;;;;;5.82;2.85;;;;;;;10.70;81.77;98979.47;5020199;28;20221;-66
2022/01/02 11:29:11;;;;;;;7.10;3.45;;;;;;;10.78;81.51;98956.53;5013923;28;20018;-66
2022/01/02 11:31:40;;;;;;;8.15;3.15;;;;;;;10.71;82.21;98961.03;5022832;28;20017;-66
2022/01/02 11:34:33;;;;;;;8.82;3.60;;;;;;;10.83;82.22;98959.97;5021432;28;20210;-66
2022/01/02 11:37:13;;;;;;;6.38;3.08;;;;;;;10.86;81.72;98954.66;5013580;28;20268;-66